createdAt,value
2022-08-01T00:01:15.698Z,74188.44
2022-08-01T00:11:19.145Z,74188.44
2022-08-01T00:21:31.216Z,74180.34
2022-08-01T00:31:33.372Z,74176.31
2022-08-01T00:41:35.425Z,74178.31
2022-08-01T00:51:38.361Z,74190.47
2022-08-01T01:01:46.571Z,74204.63
2022-08-01T01:11:59.799Z,74212.72
2022-08-01T01:22:38.688Z,74212.72
2022-08-01T01:32:48.899Z,74224.84
2022-08-01T01:42:54.242Z,74237.00
2022-08-01T01:53:01.331Z,74239.00
2022-08-01T02:03:05.867Z,74249.13
2022-08-01T02:13:09.961Z,74245.09
2022-08-01T02:23:15.018Z,74259.25
2022-08-01T02:33:26.073Z,74277.44
2022-08-01T02:43:30.007Z,74295.66
2022-08-01T02:53:44.004Z,74309.81
2022-08-01T03:03:47.647Z,74326.00
2022-08-01T03:14:03.024Z,74340.16
2022-08-01T03:24:09.881Z,74354.31
2022-08-01T03:34:19.076Z,74362.41
2022-08-01T03:44:30.372Z,74346.22
2022-08-01T03:54:37.341Z,74354.31
2022-08-01T04:04:40.583Z,74358.38
2022-08-01T04:14:43.823Z,74344.22
2022-08-01T04:24:54.472Z,74323.97
2022-08-01T04:35:23.438Z,74309.81
2022-08-01T04:45:37.458Z,74289.59
2022-08-01T04:55:43.450Z,74261.25
2022-08-01T05:05:47.854Z,74245.09
2022-08-01T05:15:55.176Z,74239.00
2022-08-01T05:26:00.924Z,74243.06
2022-08-01T05:36:21.838Z,73955.78
2022-08-01T05:46:26.177Z,73711.03
2022-08-01T05:56:32.471Z,73514.81
2022-08-01T06:06:34.601Z,73518.88
2022-08-01T06:16:37.208Z,73425.81
2022-08-01T06:26:41.743Z,73389.41
2022-08-01T06:36:47.455Z,73294.34
2022-08-01T06:46:49.587Z,73257.94
2022-08-01T06:56:55.094Z,73237.72
2022-08-01T07:07:00.560Z,73181.09
2022-08-01T07:17:04.919Z,73116.38
2022-08-01T07:27:26.121Z,73106.25
2022-08-01T07:37:41.971Z,73096.16
2022-08-01T07:47:50.919Z,73007.16
2022-08-01T07:57:56.572Z,72970.75
2022-08-01T08:08:03.539Z,72954.59
2022-08-01T08:18:10.869Z,72990.97
2022-08-01T08:28:15.154Z,73013.22
2022-08-01T08:38:17.218Z,72968.75
2022-08-01T08:48:27.809Z,73001.09
2022-08-01T08:58:38.716Z,73039.53
2022-08-01T09:08:47.926Z,73057.72
2022-08-01T09:18:53.553Z,73120.41
2022-08-01T09:29:10.600Z,73059.75
2022-08-01T09:39:19.436Z,73075.94
2022-08-01T09:49:50.698Z,73108.28
2022-08-01T09:59:59.104Z,73065.81
2022-08-01T10:10:16.367Z,73063.78
2022-08-01T10:20:30.611Z,73134.59
2022-08-01T10:30:33.353Z,73173.00
2022-08-01T10:40:44.206Z,73173.00
2022-08-01T10:50:50.334Z,73177.06
2022-08-01T11:01:30.419Z,73213.47
2022-08-01T11:12:23.276Z,73205.38
2022-08-01T11:22:25.912Z,73197.28
2022-08-01T11:32:52.578Z,73173.00
2022-08-01T11:43:33.920Z,73116.38
2022-08-01T11:53:47.740Z,73124.47
2022-08-01T12:03:58.491Z,73108.28
2022-08-01T12:14:08.285Z,73079.97
2022-08-01T12:24:11.429Z,73055.69
2022-08-01T12:34:35.361Z,73039.53
2022-08-01T12:44:39.887Z,73047.63
2022-08-01T12:55:03.995Z,73031.44
2022-08-01T13:05:16.045Z,73013.22
2022-08-01T13:15:27.439Z,73033.47
2022-08-01T13:25:32.424Z,73055.69
2022-08-01T13:35:34.497Z,73051.66
2022-08-01T13:45:40.035Z,73031.44
2022-08-01T13:55:42.801Z,73005.13
2022-08-01T14:05:48.724Z,73001.09
2022-08-01T14:16:01.413Z,73001.09
2022-08-01T14:26:11.695Z,72995.03
2022-08-01T14:36:29.446Z,73011.22
2022-08-01T14:46:35.422Z,72984.91
2022-08-01T14:56:37.536Z,72980.88
2022-08-01T15:06:40.503Z,72968.75
2022-08-01T15:16:42.785Z,72978.84
2022-08-01T15:26:47.302Z,73011.22
2022-08-01T15:36:49.431Z,73025.38
2022-08-01T15:46:54.060Z,73023.34
2022-08-01T15:56:59.050Z,73039.53
2022-08-01T16:07:03.786Z,73059.75
2022-08-01T16:17:10.632Z,73077.94
2022-08-01T16:27:17.072Z,73114.34
2022-08-01T16:37:24.684Z,73124.47
2022-08-01T16:47:31.227Z,73132.56
2022-08-01T16:57:38.870Z,73154.81
2022-08-01T17:07:45.568Z,73154.81
2022-08-01T17:17:51.466Z,73168.97
2022-08-01T17:27:58.254Z,73191.22
2022-08-01T17:38:00.685Z,73203.34
2022-08-01T17:48:02.892Z,73215.47
2022-08-01T17:58:14.722Z,73229.63
2022-08-01T18:08:19.185Z,73241.78
2022-08-01T18:18:33.240Z,73255.94
2022-08-01T18:28:41.931Z,73274.13
2022-08-01T18:38:50.239Z,73290.31
2022-08-01T18:48:53.633Z,73310.53
2022-08-01T18:59:00.599Z,73318.63
2022-08-01T19:09:05.446Z,73330.75
2022-08-01T19:19:09.798Z,73338.84
2022-08-01T19:29:35.447Z,73346.94
2022-08-01T19:39:52.571Z,73361.09
2022-08-01T19:49:56.919Z,73357.06
2022-08-01T20:00:04.935Z,73359.09
2022-08-01T20:10:07.917Z,73365.16
2022-08-01T20:20:12.646Z,73379.31
2022-08-01T20:30:17.417Z,73389.41
2022-08-01T20:40:26.704Z,73391.44
2022-08-01T20:50:52.841Z,73395.50
2022-08-01T21:01:01.899Z,73399.53
2022-08-01T21:11:04.840Z,73409.66
2022-08-01T21:21:10.847Z,73417.75
2022-08-01T21:31:17.625Z,73415.72
2022-08-01T21:41:56.387Z,73429.88
2022-08-01T21:51:56.674Z,73433.91
2022-08-01T22:02:04.660Z,73440.00
2022-08-01T22:12:12.526Z,73440.00
2022-08-01T22:22:42.478Z,73452.13
2022-08-01T22:33:07.423Z,73468.31
2022-08-01T22:43:20.261Z,73470.31
2022-08-01T22:53:29.806Z,73474.38
2022-08-01T23:03:35.837Z,73472.34
2022-08-01T23:13:38.044Z,73476.41
2022-08-01T23:23:46.874Z,73480.44
2022-08-01T23:33:54.149Z,73484.47
2022-08-01T23:44:03.464Z,73482.47
2022-08-01T23:54:25.752Z,73480.44
